Terminal Aerodrome Forecast
Issued by NWS Upton, NY

Home | Current Version | Previous Version | Text Only | Print | Product List | Glossary On
Versions: 1 2 3 4 5 6 7 8 9 10 11 12 13 14 15 16 17 18 19 20 21 22 23 24 25 26
683
FTUS41 KOKX 102031 AAA
TAFEWR
TAF AMD
KEWR 102031Z 1021/1124 27014G22KT P6SM BKN050
     FM110100 27012KT P6SM BKN120
     FM110700 29012G19KT P6SM OVC035 PROB30 1107/1111 P6SM -SHSN
      OVC025
     FM111100 29015G23KT P6SM BKN130
     FM111500 29019G29KT P6SM BKN050
     FM111900 29022G32KT P6SM BKN150=

USA.gov is the U.S. government's official web portal to all federal, state and local government web resources and services.